sensor_id;sensor_type;location;lat;lon;timestamp;temperature;humidity
51011;DHT22;37038;50.182;8.624;2023-07-31T00:00:25;17.20;99.90
51011;DHT22;37038;50.182;8.624;2023-07-31T00:03:12;17.10;99.90
51011;DHT22;37038;50.182;8.624;2023-07-31T00:06:00;17.00;99.90
51011;DHT22;37038;50.182;8.624;2023-07-31T00:08:47;17.00;99.90
51011;DHT22;37038;50.182;8.624;2023-07-31T00:11:35;17.00;99.90
51011;DHT22;37038;50.182;8.624;2023-07-31T00:14:22;17.00;99.90
51011;DHT22;37038;50.182;8.624;2023-07-31T00:17:10;16.90;99.90
51011;DHT22;37038;50.182;8.624;2023-07-31T00:19:58;16.90;99.90
51011;DHT22;37038;50.182;8.624;2023-07-31T00:22:45;16.80;99.90
51011;DHT22;37038;50.182;8.624;2023-07-31T00:25:32;16.80;99.90
51011;DHT22;37038;50.182;8.624;2023-07-31T00:28:20;16.70;99.90
51011;DHT22;37038;50.182;8.624;2023-07-31T00:31:07;16.60;99.90
51011;DHT22;37038;50.182;8.624;2023-07-31T00:33:55;16.50;99.90
51011;DHT22;37038;50.182;8.624;2023-07-31T00:36:42;16.50;99.90
51011;DHT22;37038;50.182;8.624;2023-07-31T00:39:30;16.30;99.90
51011;DHT22;37038;50.182;8.624;2023-07-31T00:42:17;16.30;99.90
51011;DHT22;37038;50.182;8.624;2023-07-31T00:45:05;16.30;99.90
51011;DHT22;37038;50.182;8.624;2023-07-31T00:47:52;16.20;99.90
51011;DHT22;37038;50.182;8.624;2023-07-31T00:50:40;16.00;99.90
51011;DHT22;37038;50.182;8.624;2023-07-31T00:53:28;16.00;99.90
51011;DHT22;37038;50.182;8.624;2023-07-31T00:56:15;16.00;99.90
51011;DHT22;37038;50.182;8.624;2023-07-31T00:59:03;16.10;99.90
51011;DHT22;37038;50.182;8.624;2023-07-31T01:01:50;16.20;99.90
51011;DHT22;37038;50.182;8.624;2023-07-31T01:04:38;16.20;99.90
51011;DHT22;37038;50.182;8.624;2023-07-31T01:07:38;16.20;99.90
51011;DHT22;37038;50.182;8.624;2023-07-31T01:10:34;16.20;99.90
51011;DHT22;37038;50.182;8.624;2023-07-31T01:13:24;16.20;99.90
51011;DHT22;37038;50.182;8.624;2023-07-31T01:16:12;16.10;99.90
51011;DHT22;37038;50.182;8.624;2023-07-31T01:18:59;16.20;99.90
51011;DHT22;37038;50.182;8.624;2023-07-31T01:24:52;16.30;99.90
51011;DHT22;37038;50.182;8.624;2023-07-31T01:27:51;16.30;99.90
51011;DHT22;37038;50.182;8.624;2023-07-31T01:30:44;16.20;99.90
51011;DHT22;37038;50.182;8.624;2023-07-31T01:33:34;16.20;99.90
51011;DHT22;37038;50.182;8.624;2023-07-31T01:36:22;16.20;99.90
51011;DHT22;37038;50.182;8.624;2023-07-31T01:39:10;16.20;99.90
51011;DHT22;37038;50.182;8.624;2023-07-31T01:41:57;15.90;99.90
51011;DHT22;37038;50.182;8.624;2023-07-31T01:44:45;15.90;99.90
51011;DHT22;37038;50.182;8.624;2023-07-31T01:47:32;15.90;99.90
51011;DHT22;37038;50.182;8.624;2023-07-31T01:50:20;16.00;99.90
51011;DHT22;37038;50.182;8.624;2023-07-31T01:53:07;16.20;99.90
51011;DHT22;37038;50.182;8.624;2023-07-31T01:55:55;16.20;99.90
51011;DHT22;37038;50.182;8.624;2023-07-31T01:58:42;16.20;99.90
51011;DHT22;37038;50.182;8.624;2023-07-31T02:01:30;16.20;99.90
51011;DHT22;37038;50.182;8.624;2023-07-31T02:04:17;16.30;99.90
51011;DHT22;37038;50.182;8.624;2023-07-31T02:07:05;16.30;99.90
51011;DHT22;37038;50.182;8.624;2023-07-31T02:09:52;16.40;99.90
51011;DHT22;37038;50.182;8.624;2023-07-31T02:12:41;16.40;99.90
51011;DHT22;37038;50.182;8.624;2023-07-31T02:15:29;16.40;99.90
51011;DHT22;37038;50.182;8.624;2023-07-31T02:18:17;16.40;99.90
51011;DHT22;37038;50.182;8.624;2023-07-31T02:21:04;16.40;99.90
51011;DHT22;37038;50.182;8.624;2023-07-31T02:23:51;16.40;99.90
51011;DHT22;37038;50.182;8.624;2023-07-31T02:26:39;16.50;99.90
51011;DHT22;37038;50.182;8.624;2023-07-31T02:29:27;16.50;99.90
51011;DHT22;37038;50.182;8.624;2023-07-31T02:32:14;16.50;99.90
51011;DHT22;37038;50.182;8.624;2023-07-31T02:35:02;16.40;99.90
51011;DHT22;37038;50.182;8.624;2023-07-31T02:37:50;16.50;99.90
51011;DHT22;37038;50.182;8.624;2023-07-31T02:40:37;16.60;99.90
51011;DHT22;37038;50.182;8.624;2023-07-31T02:43:26;16.60;99.90
51011;DHT22;37038;50.182;8.624;2023-07-31T02:46:13;16.70;99.90
51011;DHT22;37038;50.182;8.624;2023-07-31T02:49:00;16.80;99.90
51011;DHT22;37038;50.182;8.624;2023-07-31T02:51:48;16.90;99.90
51011;DHT22;37038;50.182;8.624;2023-07-31T02:54:35;16.90;99.90
51011;DHT22;37038;50.182;8.624;2023-07-31T02:57:22;17.00;99.90
51011;DHT22;37038;50.182;8.624;2023-07-31T03:00:10;16.90;99.90
51011;DHT22;37038;50.182;8.624;2023-07-31T03:02:57;17.00;99.90
51011;DHT22;37038;50.182;8.624;2023-07-31T03:05:45;17.10;99.90
51011;DHT22;37038;50.182;8.624;2023-07-31T03:08:32;17.10;99.90
51011;DHT22;37038;50.182;8.624;2023-07-31T03:11:20;17.10;99.90
51011;DHT22;37038;50.182;8.624;2023-07-31T03:14:07;17.00;99.90
51011;DHT22;37038;50.182;8.624;2023-07-31T03:16:55;16.90;99.90
51011;DHT22;37038;50.182;8.624;2023-07-31T03:19:42;16.90;99.90
51011;DHT22;37038;50.182;8.624;2023-07-31T03:22:30;16.80;99.90
51011;DHT22;37038;50.182;8.624;2023-07-31T03:25:17;16.80;99.90
51011;DHT22;37038;50.182;8.624;2023-07-31T03:28:04;16.80;99.90
51011;DHT22;37038;50.182;8.624;2023-07-31T03:30:52;16.80;99.90
51011;DHT22;37038;50.182;8.624;2023-07-31T03:33:40;16.80;99.90
51011;DHT22;37038;50.182;8.624;2023-07-31T03:36:28;16.80;99.90
51011;DHT22;37038;50.182;8.624;2023-07-31T03:39:16;16.80;99.90
51011;DHT22;37038;50.182;8.624;2023-07-31T03:42:03;16.80;99.90
51011;DHT22;37038;50.182;8.624;2023-07-31T03:44:51;16.90;99.90
51011;DHT22;37038;50.182;8.624;2023-07-31T03:47:38;16.90;99.90
51011;DHT22;37038;50.182;8.624;2023-07-31T03:50:25;16.90;99.90
51011;DHT22;37038;50.182;8.624;2023-07-31T03:53:13;17.00;99.90
51011;DHT22;37038;50.182;8.624;2023-07-31T03:56:00;17.00;99.90
51011;DHT22;37038;50.182;8.624;2023-07-31T03:58:48;17.10;99.90
51011;DHT22;37038;50.182;8.624;2023-07-31T04:01:35;17.20;99.90
51011;DHT22;37038;50.182;8.624;2023-07-31T04:04:23;17.20;99.90
51011;DHT22;37038;50.182;8.624;2023-07-31T04:07:10;17.20;99.90
51011;DHT22;37038;50.182;8.624;2023-07-31T04:09:59;17.30;99.90
51011;DHT22;37038;50.182;8.624;2023-07-31T04:12:47;17.30;99.90
51011;DHT22;37038;50.182;8.624;2023-07-31T04:15:34;17.30;99.90
51011;DHT22;37038;50.182;8.624;2023-07-31T04:18:24;17.30;99.90
51011;DHT22;37038;50.182;8.624;2023-07-31T04:21:12;17.30;99.90
51011;DHT22;37038;50.182;8.624;2023-07-31T04:23:59;17.30;99.90
51011;DHT22;37038;50.182;8.624;2023-07-31T04:26:46;17.40;99.90
51011;DHT22;37038;50.182;8.624;2023-07-31T04:29:34;17.40;99.90
51011;DHT22;37038;50.182;8.624;2023-07-31T04:32:21;17.40;99.90
51011;DHT22;37038;50.182;8.624;2023-07-31T04:35:09;17.50;99.90
51011;DHT22;37038;50.182;8.624;2023-07-31T04:37:56;17.50;99.90
51011;DHT22;37038;50.182;8.624;2023-07-31T04:40:44;17.40;99.90
51011;DHT22;37038;50.182;8.624;2023-07-31T04:43:31;17.50;99.90
51011;DHT22;37038;50.182;8.624;2023-07-31T04:46:19;17.60;99.90
51011;DHT22;37038;50.182;8.624;2023-07-31T04:49:06;17.60;99.90
51011;DHT22;37038;50.182;8.624;2023-07-31T04:51:54;17.60;99.90
51011;DHT22;37038;50.182;8.624;2023-07-31T04:54:41;17.70;99.90
51011;DHT22;37038;50.182;8.624;2023-07-31T04:57:28;17.70;99.90
51011;DHT22;37038;50.182;8.624;2023-07-31T05:00:16;17.70;99.90
51011;DHT22;37038;50.182;8.624;2023-07-31T05:03:04;17.70;99.90
51011;DHT22;37038;50.182;8.624;2023-07-31T05:05:52;17.80;99.90
51011;DHT22;37038;50.182;8.624;2023-07-31T05:08:39;17.70;99.90
51011;DHT22;37038;50.182;8.624;2023-07-31T05:11:27;17.70;99.90
51011;DHT22;37038;50.182;8.624;2023-07-31T05:14:15;17.60;99.90
51011;DHT22;37038;50.182;8.624;2023-07-31T05:17:03;17.70;99.90
51011;DHT22;37038;50.182;8.624;2023-07-31T05:19:50;17.80;99.90
51011;DHT22;37038;50.182;8.624;2023-07-31T05:22:40;17.80;99.90
51011;DHT22;37038;50.182;8.624;2023-07-31T05:25:28;17.80;99.90
51011;DHT22;37038;50.182;8.624;2023-07-31T05:28:16;17.80;99.90
51011;DHT22;37038;50.182;8.624;2023-07-31T05:31:04;17.90;99.90
51011;DHT22;37038;50.182;8.624;2023-07-31T05:33:51;17.90;99.90
51011;DHT22;37038;50.182;8.624;2023-07-31T05:36:38;17.90;99.90
51011;DHT22;37038;50.182;8.624;2023-07-31T05:39:26;17.80;99.90
51011;DHT22;37038;50.182;8.624;2023-07-31T05:42:14;17.70;99.90
51011;DHT22;37038;50.182;8.624;2023-07-31T05:45:02;17.80;99.90
51011;DHT22;37038;50.182;8.624;2023-07-31T05:47:49;17.80;99.90
51011;DHT22;37038;50.182;8.624;2023-07-31T05:50:37;17.80;99.90
51011;DHT22;37038;50.182;8.624;2023-07-31T05:53:27;17.80;99.90
51011;DHT22;37038;50.182;8.624;2023-07-31T05:56:14;18.20;99.90
51011;DHT22;37038;50.182;8.624;2023-07-31T05:59:05;18.10;99.90
51011;DHT22;37038;50.182;8.624;2023-07-31T06:01:52;17.90;99.90
51011;DHT22;37038;50.182;8.624;2023-07-31T06:04:40;17.90;99.90
51011;DHT22;37038;50.182;8.624;2023-07-31T06:07:27;17.90;99.90
51011;DHT22;37038;50.182;8.624;2023-07-31T06:10:15;18.00;99.90
51011;DHT22;37038;50.182;8.624;2023-07-31T06:13:02;17.90;99.90
51011;DHT22;37038;50.182;8.624;2023-07-31T06:15:49;18.10;99.90
51011;DHT22;37038;50.182;8.624;2023-07-31T06:18:38;18.00;99.90
51011;DHT22;37038;50.182;8.624;2023-07-31T06:21:25;17.90;99.90
51011;DHT22;37038;50.182;8.624;2023-07-31T06:24:12;17.90;99.90
51011;DHT22;37038;50.182;8.624;2023-07-31T06:27:00;18.00;99.90
51011;DHT22;37038;50.182;8.624;2023-07-31T06:29:50;18.30;99.90
51011;DHT22;37038;50.182;8.624;2023-07-31T06:32:37;18.00;99.90
51011;DHT22;37038;50.182;8.624;2023-07-31T06:35:25;17.90;99.90
51011;DHT22;37038;50.182;8.624;2023-07-31T06:38:12;17.90;99.90
51011;DHT22;37038;50.182;8.624;2023-07-31T06:41:00;18.00;99.90
51011;DHT22;37038;50.182;8.624;2023-07-31T06:43:48;18.20;99.90
51011;DHT22;37038;50.182;8.624;2023-07-31T06:46:35;18.00;99.90
51011;DHT22;37038;50.182;8.624;2023-07-31T06:49:23;18.20;99.90
51011;DHT22;37038;50.182;8.624;2023-07-31T06:52:11;18.00;99.90
51011;DHT22;37038;50.182;8.624;2023-07-31T06:55:18;18.10;99.90
51011;DHT22;37038;50.182;8.624;2023-07-31T06:58:07;18.30;99.90
51011;DHT22;37038;50.182;8.624;2023-07-31T07:00:55;18.30;99.90
51011;DHT22;37038;50.182;8.624;2023-07-31T07:03:42;18.40;99.90
51011;DHT22;37038;50.182;8.624;2023-07-31T07:06:30;18.80;99.90
51011;DHT22;37038;50.182;8.624;2023-07-31T07:09:17;19.60;99.90
51011;DHT22;37038;50.182;8.624;2023-07-31T07:12:05;19.60;99.90
51011;DHT22;37038;50.182;8.624;2023-07-31T07:14:53;20.30;99.90
51011;DHT22;37038;50.182;8.624;2023-07-31T07:17:41;20.70;99.90
51011;DHT22;37038;50.182;8.624;2023-07-31T07:20:29;19.70;99.90
51011;DHT22;37038;50.182;8.624;2023-07-31T07:23:17;19.90;99.90
51011;DHT22;37038;50.182;8.624;2023-07-31T07:26:05;19.70;99.90
51011;DHT22;37038;50.182;8.624;2023-07-31T07:28:52;19.90;99.90
51011;DHT22;37038;50.182;8.624;2023-07-31T07:31:40;20.30;99.90
51011;DHT22;37038;50.182;8.624;2023-07-31T07:34:28;20.10;99.90
51011;DHT22;37038;50.182;8.624;2023-07-31T07:37:15;19.20;99.90
51011;DHT22;37038;50.182;8.624;2023-07-31T07:40:03;19.00;99.90
51011;DHT22;37038;50.182;8.624;2023-07-31T07:42:51;19.20;99.90
51011;DHT22;37038;50.182;8.624;2023-07-31T07:45:39;19.20;99.90
51011;DHT22;37038;50.182;8.624;2023-07-31T07:48:26;19.00;99.90
51011;DHT22;37038;50.182;8.624;2023-07-31T07:51:14;19.20;99.90
51011;DHT22;37038;50.182;8.624;2023-07-31T07:54:01;19.50;99.90
51011;DHT22;37038;50.182;8.624;2023-07-31T07:56:49;20.10;99.90
51011;DHT22;37038;50.182;8.624;2023-07-31T07:59:37;20.50;99.90
51011;DHT22;37038;50.182;8.624;2023-07-31T08:02:24;19.90;99.90
51011;DHT22;37038;50.182;8.624;2023-07-31T08:05:12;19.80;99.90
51011;DHT22;37038;50.182;8.624;2023-07-31T08:07:59;19.50;99.90
51011;DHT22;37038;50.182;8.624;2023-07-31T08:10:47;19.30;99.90
51011;DHT22;37038;50.182;8.624;2023-07-31T08:13:34;19.40;99.90
51011;DHT22;37038;50.182;8.624;2023-07-31T08:16:23;19.50;99.90
51011;DHT22;37038;50.182;8.624;2023-07-31T08:19:11;19.50;99.90
51011;DHT22;37038;50.182;8.624;2023-07-31T08:21:58;19.50;99.90
51011;DHT22;37038;50.182;8.624;2023-07-31T08:24:46;19.70;99.90
51011;DHT22;37038;50.182;8.624;2023-07-31T08:27:33;20.00;99.90
51011;DHT22;37038;50.182;8.624;2023-07-31T08:30:21;20.00;99.90
51011;DHT22;37038;50.182;8.624;2023-07-31T08:33:08;20.10;99.90
51011;DHT22;37038;50.182;8.624;2023-07-31T08:35:56;20.40;99.90
51011;DHT22;37038;50.182;8.624;2023-07-31T08:38:44;20.50;99.90
51011;DHT22;37038;50.182;8.624;2023-07-31T08:41:36;20.10;99.90
51011;DHT22;37038;50.182;8.624;2023-07-31T08:44:24;20.40;99.90
51011;DHT22;37038;50.182;8.624;2023-07-31T08:47:11;20.80;99.90
51011;DHT22;37038;50.182;8.624;2023-07-31T08:49:59;20.90;99.90
51011;DHT22;37038;50.182;8.624;2023-07-31T08:52:50;20.70;99.90
51011;DHT22;37038;50.182;8.624;2023-07-31T08:55:38;20.80;99.90
51011;DHT22;37038;50.182;8.624;2023-07-31T08:58:26;20.50;99.90
51011;DHT22;37038;50.182;8.624;2023-07-31T09:01:14;20.60;99.90
51011;DHT22;37038;50.182;8.624;2023-07-31T09:04:02;20.50;99.90
51011;DHT22;37038;50.182;8.624;2023-07-31T09:06:54;20.60;99.90
51011;DHT22;37038;50.182;8.624;2023-07-31T09:09:45;20.60;99.90
51011;DHT22;37038;50.182;8.624;2023-07-31T09:12:32;20.80;99.90
51011;DHT22;37038;50.182;8.624;2023-07-31T09:15:20;20.70;99.90
51011;DHT22;37038;50.182;8.624;2023-07-31T09:18:22;20.50;99.90
51011;DHT22;37038;50.182;8.624;2023-07-31T09:21:10;20.50;99.90
51011;DHT22;37038;50.182;8.624;2023-07-31T09:23:57;20.20;99.90
51011;DHT22;37038;50.182;8.624;2023-07-31T09:26:45;20.30;99.90
51011;DHT22;37038;50.182;8.624;2023-07-31T09:29:32;20.60;99.90
51011;DHT22;37038;50.182;8.624;2023-07-31T09:32:20;20.10;99.90
51011;DHT22;37038;50.182;8.624;2023-07-31T09:38:03;19.80;99.90
51011;DHT22;37038;50.182;8.624;2023-07-31T09:40:51;19.90;99.90
51011;DHT22;37038;50.182;8.624;2023-07-31T09:43:38;19.70;99.90
51011;DHT22;37038;50.182;8.624;2023-07-31T09:46:26;19.50;99.90
51011;DHT22;37038;50.182;8.624;2023-07-31T09:49:14;19.40;99.90
51011;DHT22;37038;50.182;8.624;2023-07-31T09:52:02;19.60;99.90
51011;DHT22;37038;50.182;8.624;2023-07-31T09:54:58;19.60;99.90
51011;DHT22;37038;50.182;8.624;2023-07-31T09:57:46;19.70;99.90
51011;DHT22;37038;50.182;8.624;2023-07-31T10:00:34;19.80;99.90
51011;DHT22;37038;50.182;8.624;2023-07-31T10:03:22;20.00;99.90
51011;DHT22;37038;50.182;8.624;2023-07-31T10:06:09;20.20;99.90
51011;DHT22;37038;50.182;8.624;2023-07-31T10:08:57;20.60;99.90
51011;DHT22;37038;50.182;8.624;2023-07-31T10:11:51;21.00;99.90
51011;DHT22;37038;50.182;8.624;2023-07-31T10:14:40;21.00;99.90
51011;DHT22;37038;50.182;8.624;2023-07-31T10:17:29;21.20;99.90
51011;DHT22;37038;50.182;8.624;2023-07-31T10:20:17;21.40;99.90
51011;DHT22;37038;50.182;8.624;2023-07-31T10:23:04;21.20;99.90
51011;DHT22;37038;50.182;8.624;2023-07-31T10:25:53;21.40;99.90
51011;DHT22;37038;50.182;8.624;2023-07-31T10:28:40;21.50;99.90
51011;DHT22;37038;50.182;8.624;2023-07-31T10:31:29;21.70;99.90
51011;DHT22;37038;50.182;8.624;2023-07-31T10:34:16;21.50;99.90
51011;DHT22;37038;50.182;8.624;2023-07-31T10:37:19;21.40;99.90
51011;DHT22;37038;50.182;8.624;2023-07-31T10:40:11;21.40;99.90
51011;DHT22;37038;50.182;8.624;2023-07-31T10:42:59;21.60;99.90
51011;DHT22;37038;50.182;8.624;2023-07-31T10:45:47;21.60;99.90
51011;DHT22;37038;50.182;8.624;2023-07-31T10:48:36;21.50;99.90
51011;DHT22;37038;50.182;8.624;2023-07-31T10:51:24;21.60;99.90
51011;DHT22;37038;50.182;8.624;2023-07-31T10:54:19;21.20;99.90
51011;DHT22;37038;50.182;8.624;2023-07-31T10:57:22;21.50;99.90
51011;DHT22;37038;50.182;8.624;2023-07-31T11:00:26;21.50;99.90
51011;DHT22;37038;50.182;8.624;2023-07-31T11:03:15;21.70;99.90
51011;DHT22;37038;50.182;8.624;2023-07-31T11:06:03;21.90;99.90
51011;DHT22;37038;50.182;8.624;2023-07-31T11:08:51;22.10;99.90
51011;DHT22;37038;50.182;8.624;2023-07-31T11:11:38;22.10;99.90
51011;DHT22;37038;50.182;8.624;2023-07-31T11:14:25;22.50;99.90
51011;DHT22;37038;50.182;8.624;2023-07-31T11:17:13;22.30;99.90
51011;DHT22;37038;50.182;8.624;2023-07-31T11:20:01;22.60;99.90
51011;DHT22;37038;50.182;8.624;2023-07-31T11:22:48;22.60;99.90
51011;DHT22;37038;50.182;8.624;2023-07-31T11:25:36;22.60;99.90
51011;DHT22;37038;50.182;8.624;2023-07-31T11:28:26;23.50;99.90
51011;DHT22;37038;50.182;8.624;2023-07-31T11:31:15;23.70;99.90
51011;DHT22;37038;50.182;8.624;2023-07-31T11:34:06;24.80;99.90
51011;DHT22;37038;50.182;8.624;2023-07-31T11:36:54;23.10;99.90
51011;DHT22;37038;50.182;8.624;2023-07-31T11:39:42;23.10;99.90
51011;DHT22;37038;50.182;8.624;2023-07-31T11:42:30;22.30;99.90
51011;DHT22;37038;50.182;8.624;2023-07-31T11:45:17;22.20;99.90
51011;DHT22;37038;50.182;8.624;2023-07-31T11:48:05;22.30;99.90
51011;DHT22;37038;50.182;8.624;2023-07-31T11:50:53;22.50;99.90
51011;DHT22;37038;50.182;8.624;2023-07-31T11:53:42;22.50;99.90
51011;DHT22;37038;50.182;8.624;2023-07-31T11:56:30;22.50;99.90
51011;DHT22;37038;50.182;8.624;2023-07-31T11:59:18;22.40;99.90
51011;DHT22;37038;50.182;8.624;2023-07-31T12:02:05;22.80;99.90
51011;DHT22;37038;50.182;8.624;2023-07-31T12:04:53;22.60;99.90
51011;DHT22;37038;50.182;8.624;2023-07-31T12:07:47;22.60;99.90
51011;DHT22;37038;50.182;8.624;2023-07-31T12:10:35;22.60;99.90
51011;DHT22;37038;50.182;8.624;2023-07-31T12:13:24;22.40;99.90
51011;DHT22;37038;50.182;8.624;2023-07-31T12:16:14;22.40;99.90
51011;DHT22;37038;50.182;8.624;2023-07-31T12:19:07;22.70;99.90
51011;DHT22;37038;50.182;8.624;2023-07-31T12:21:55;22.70;99.90
51011;DHT22;37038;50.182;8.624;2023-07-31T12:24:43;22.90;99.90
51011;DHT22;37038;50.182;8.624;2023-07-31T12:27:33;22.60;99.90
51011;DHT22;37038;50.182;8.624;2023-07-31T12:30:56;22.50;99.90
51011;DHT22;37038;50.182;8.624;2023-07-31T12:33:36;22.70;99.90
51011;DHT22;37038;50.182;8.624;2023-07-31T12:36:24;22.90;99.90
51011;DHT22;37038;50.182;8.624;2023-07-31T12:39:12;23.10;99.90
51011;DHT22;37038;50.182;8.624;2023-07-31T12:41:59;23.90;99.90
51011;DHT22;37038;50.182;8.624;2023-07-31T12:44:48;23.70;99.90
51011;DHT22;37038;50.182;8.624;2023-07-31T12:47:35;24.40;99.90
51011;DHT22;37038;50.182;8.624;2023-07-31T12:50:25;24.10;99.90
51011;DHT22;37038;50.182;8.624;2023-07-31T12:53:14;25.50;99.90
51011;DHT22;37038;50.182;8.624;2023-07-31T12:56:02;25.30;99.90
51011;DHT22;37038;50.182;8.624;2023-07-31T12:58:51;25.40;99.90
51011;DHT22;37038;50.182;8.624;2023-07-31T13:01:39;24.90;99.90
51011;DHT22;37038;50.182;8.624;2023-07-31T13:04:28;25.00;99.90
51011;DHT22;37038;50.182;8.624;2023-07-31T13:07:15;25.00;99.90
51011;DHT22;37038;50.182;8.624;2023-07-31T13:10:03;24.80;99.90
51011;DHT22;37038;50.182;8.624;2023-07-31T13:12:51;24.40;99.90
51011;DHT22;37038;50.182;8.624;2023-07-31T13:15:38;25.40;99.90
51011;DHT22;37038;50.182;8.624;2023-07-31T13:18:26;25.20;99.50
51011;DHT22;37038;50.182;8.624;2023-07-31T13:21:14;24.50;99.50
51011;DHT22;37038;50.182;8.624;2023-07-31T13:24:07;24.40;99.90
51011;DHT22;37038;50.182;8.624;2023-07-31T13:27:00;24.10;99.90
51011;DHT22;37038;50.182;8.624;2023-07-31T13:29:49;23.80;99.90
51011;DHT22;37038;50.182;8.624;2023-07-31T13:32:36;24.00;99.90
51011;DHT22;37038;50.182;8.624;2023-07-31T13:35:28;23.90;99.90
51011;DHT22;37038;50.182;8.624;2023-07-31T13:38:20;23.80;99.90
51011;DHT22;37038;50.182;8.624;2023-07-31T13:41:08;24.00;99.90
51011;DHT22;37038;50.182;8.624;2023-07-31T13:43:55;24.00;99.90
51011;DHT22;37038;50.182;8.624;2023-07-31T13:46:43;23.80;99.90
51011;DHT22;37038;50.182;8.624;2023-07-31T13:49:30;23.70;99.90
51011;DHT22;37038;50.182;8.624;2023-07-31T13:52:18;23.60;99.90
51011;DHT22;37038;50.182;8.624;2023-07-31T13:55:05;23.40;99.90
51011;DHT22;37038;50.182;8.624;2023-07-31T13:57:53;23.30;99.90
51011;DHT22;37038;50.182;8.624;2023-07-31T14:00:41;23.00;99.90
51011;DHT22;37038;50.182;8.624;2023-07-31T14:03:28;23.10;99.90
51011;DHT22;37038;50.182;8.624;2023-07-31T14:06:16;22.80;99.90
51011;DHT22;37038;50.182;8.624;2023-07-31T14:09:03;22.70;99.90
51011;DHT22;37038;50.182;8.624;2023-07-31T14:11:51;22.60;99.90
51011;DHT22;37038;50.182;8.624;2023-07-31T14:14:38;22.40;99.90
51011;DHT22;37038;50.182;8.624;2023-07-31T14:17:26;22.20;99.90
51011;DHT22;37038;50.182;8.624;2023-07-31T14:20:13;22.20;99.90
51011;DHT22;37038;50.182;8.624;2023-07-31T14:23:02;22.00;99.90
51011;DHT22;37038;50.182;8.624;2023-07-31T14:25:49;22.30;99.90
51011;DHT22;37038;50.182;8.624;2023-07-31T14:28:37;22.30;99.90
51011;DHT22;37038;50.182;8.624;2023-07-31T14:31:24;22.50;99.90
51011;DHT22;37038;50.182;8.624;2023-07-31T14:34:12;22.40;99.90
51011;DHT22;37038;50.182;8.624;2023-07-31T14:36:59;22.30;99.90
51011;DHT22;37038;50.182;8.624;2023-07-31T14:39:47;22.30;99.90
51011;DHT22;37038;50.182;8.624;2023-07-31T14:42:35;22.70;99.90
51011;DHT22;37038;50.182;8.624;2023-07-31T14:45:22;22.90;99.90
51011;DHT22;37038;50.182;8.624;2023-07-31T14:48:09;23.00;99.90
51011;DHT22;37038;50.182;8.624;2023-07-31T14:50:57;22.80;99.90
51011;DHT22;37038;50.182;8.624;2023-07-31T14:53:47;22.70;99.90
51011;DHT22;37038;50.182;8.624;2023-07-31T14:56:34;22.70;99.90
51011;DHT22;37038;50.182;8.624;2023-07-31T14:59:22;22.40;99.90
51011;DHT22;37038;50.182;8.624;2023-07-31T15:02:09;22.40;99.90
51011;DHT22;37038;50.182;8.624;2023-07-31T15:04:57;22.30;99.90
51011;DHT22;37038;50.182;8.624;2023-07-31T15:07:44;22.30;99.90
51011;DHT22;37038;50.182;8.624;2023-07-31T15:10:32;22.30;99.90
51011;DHT22;37038;50.182;8.624;2023-07-31T15:13:19;22.30;99.90
51011;DHT22;37038;50.182;8.624;2023-07-31T15:16:07;22.20;99.90
51011;DHT22;37038;50.182;8.624;2023-07-31T15:18:54;22.20;99.90
51011;DHT22;37038;50.182;8.624;2023-07-31T15:21:42;22.00;99.90
51011;DHT22;37038;50.182;8.624;2023-07-31T15:24:29;21.70;99.90
51011;DHT22;37038;50.182;8.624;2023-07-31T15:27:17;21.70;99.90
51011;DHT22;37038;50.182;8.624;2023-07-31T15:30:04;21.50;99.90
51011;DHT22;37038;50.182;8.624;2023-07-31T15:32:52;21.50;99.90
51011;DHT22;37038;50.182;8.624;2023-07-31T15:35:40;21.40;99.90
51011;DHT22;37038;50.182;8.624;2023-07-31T15:38:28;21.40;99.90
51011;DHT22;37038;50.182;8.624;2023-07-31T15:41:15;21.50;99.90
51011;DHT22;37038;50.182;8.624;2023-07-31T15:44:07;21.40;99.90
51011;DHT22;37038;50.182;8.624;2023-07-31T15:46:54;21.40;99.90
51011;DHT22;37038;50.182;8.624;2023-07-31T15:49:42;21.40;99.90
51011;DHT22;37038;50.182;8.624;2023-07-31T15:52:29;21.30;99.90
51011;DHT22;37038;50.182;8.624;2023-07-31T15:55:16;21.20;99.90
51011;DHT22;37038;50.182;8.624;2023-07-31T15:58:05;21.00;99.90
51011;DHT22;37038;50.182;8.624;2023-07-31T16:00:52;20.90;99.90
51011;DHT22;37038;50.182;8.624;2023-07-31T16:03:40;20.70;99.90
51011;DHT22;37038;50.182;8.624;2023-07-31T16:06:27;20.70;99.90
51011;DHT22;37038;50.182;8.624;2023-07-31T16:09:15;20.70;99.90
51011;DHT22;37038;50.182;8.624;2023-07-31T16:12:02;20.60;99.90
51011;DHT22;37038;50.182;8.624;2023-07-31T16:14:50;20.60;99.90
51011;DHT22;37038;50.182;8.624;2023-07-31T16:17:38;20.60;99.90
51011;DHT22;37038;50.182;8.624;2023-07-31T16:20:26;20.70;99.90
51011;DHT22;37038;50.182;8.624;2023-07-31T16:23:13;20.60;99.90
51011;DHT22;37038;50.182;8.624;2023-07-31T16:26:01;20.60;99.90
51011;DHT22;37038;50.182;8.624;2023-07-31T16:28:48;20.60;99.90
51011;DHT22;37038;50.182;8.624;2023-07-31T16:31:36;20.50;99.90
51011;DHT22;37038;50.182;8.624;2023-07-31T16:34:43;20.50;99.90
51011;DHT22;37038;50.182;8.624;2023-07-31T16:37:30;20.50;99.90
51011;DHT22;37038;50.182;8.624;2023-07-31T16:40:17;20.70;99.90
51011;DHT22;37038;50.182;8.624;2023-07-31T16:43:05;20.60;99.90
51011;DHT22;37038;50.182;8.624;2023-07-31T16:45:55;20.80;99.90
51011;DHT22;37038;50.182;8.624;2023-07-31T16:48:43;20.80;99.90
51011;DHT22;37038;50.182;8.624;2023-07-31T16:51:30;21.00;99.90
51011;DHT22;37038;50.182;8.624;2023-07-31T16:54:18;20.90;99.90
51011;DHT22;37038;50.182;8.624;2023-07-31T16:57:05;21.00;99.90
51011;DHT22;37038;50.182;8.624;2023-07-31T16:59:53;21.00;99.90
51011;DHT22;37038;50.182;8.624;2023-07-31T17:02:40;21.00;99.90
51011;DHT22;37038;50.182;8.624;2023-07-31T17:05:28;20.80;99.90
51011;DHT22;37038;50.182;8.624;2023-07-31T17:08:16;20.90;99.90
51011;DHT22;37038;50.182;8.624;2023-07-31T17:11:03;20.80;99.90
51011;DHT22;37038;50.182;8.624;2023-07-31T17:13:50;20.80;99.90
51011;DHT22;37038;50.182;8.624;2023-07-31T17:16:38;20.60;99.90
51011;DHT22;37038;50.182;8.624;2023-07-31T17:19:26;20.50;99.90
51011;DHT22;37038;50.182;8.624;2023-07-31T17:22:13;20.40;99.90
51011;DHT22;37038;50.182;8.624;2023-07-31T17:25:00;20.40;99.90
51011;DHT22;37038;50.182;8.624;2023-07-31T17:27:48;20.10;99.90
51011;DHT22;37038;50.182;8.624;2023-07-31T17:30:39;19.80;99.90
51011;DHT22;37038;50.182;8.624;2023-07-31T17:33:26;19.50;99.90
51011;DHT22;37038;50.182;8.624;2023-07-31T17:36:14;19.20;99.90
51011;DHT22;37038;50.182;8.624;2023-07-31T17:39:02;19.10;99.90
51011;DHT22;37038;50.182;8.624;2023-07-31T17:41:50;18.90;99.90
51011;DHT22;37038;50.182;8.624;2023-07-31T17:44:38;18.70;99.90
51011;DHT22;37038;50.182;8.624;2023-07-31T17:47:25;18.60;99.90